sensor_id;sensor_type;location;lat;lon;timestamp;P1;durP1;ratioP1;P2;durP2;ratioP2
54464;SDS011;40374;49.480;20.016;2022-12-11T00:00:50;6.13;;;3.00;;
54464;SDS011;40374;49.480;20.016;2022-12-11T00:03:38;3.00;;;2.35;;
54464;SDS011;40374;49.480;20.016;2022-12-11T00:06:06;5.07;;;2.70;;
54464;SDS011;40374;49.480;20.016;2022-12-11T00:08:36;6.80;;;2.83;;
54464;SDS011;40374;49.480;20.016;2022-12-11T00:11:04;3.85;;;2.28;;
54464;SDS011;40374;49.480;20.016;2022-12-11T00:13:34;4.03;;;2.45;;
54464;SDS011;40374;49.480;20.016;2022-12-11T00:16:02;4.35;;;2.65;;
54464;SDS011;40374;49.480;20.016;2022-12-11T00:18:29;6.70;;;3.17;;
54464;SDS011;40374;49.480;20.016;2022-12-11T00:21:01;5.35;;;2.35;;
54464;SDS011;40374;49.480;20.016;2022-12-11T00:23:29;3.38;;;2.50;;
54464;SDS011;40374;49.480;20.016;2022-12-11T00:25:56;4.30;;;2.13;;
54464;SDS011;40374;49.480;20.016;2022-12-11T00:28:23;5.75;;;2.83;;
54464;SDS011;40374;49.480;20.016;2022-12-11T00:30:51;4.82;;;2.65;;
54464;SDS011;40374;49.480;20.016;2022-12-11T00:33:18;2.33;;;1.92;;
54464;SDS011;40374;49.480;20.016;2022-12-11T00:35:46;5.65;;;2.42;;
54464;SDS011;40374;49.480;20.016;2022-12-11T00:38:18;2.97;;;1.95;;
54464;SDS011;40374;49.480;20.016;2022-12-11T00:40:47;4.28;;;2.63;;
54464;SDS011;40374;49.480;20.016;2022-12-11T00:43:15;4.90;;;2.20;;
54464;SDS011;40374;49.480;20.016;2022-12-11T00:45:43;4.13;;;1.83;;
54464;SDS011;40374;49.480;20.016;2022-12-11T00:48:12;3.60;;;2.30;;
54464;SDS011;40374;49.480;20.016;2022-12-11T00:50:41;3.45;;;1.88;;
54464;SDS011;40374;49.480;20.016;2022-12-11T00:53:08;3.67;;;2.22;;
54464;SDS011;40374;49.480;20.016;2022-12-11T00:55:36;4.53;;;2.65;;
54464;SDS011;40374;49.480;20.016;2022-12-11T00:58:05;4.82;;;2.45;;
54464;SDS011;40374;49.480;20.016;2022-12-11T01:00:33;3.17;;;1.83;;
54464;SDS011;40374;49.480;20.016;2022-12-11T01:03:01;3.17;;;1.90;;
54464;SDS011;40374;49.480;20.016;2022-12-11T01:05:29;3.95;;;2.15;;
54464;SDS011;40374;49.480;20.016;2022-12-11T01:07:56;4.78;;;1.83;;
54464;SDS011;40374;49.480;20.016;2022-12-11T01:10:24;3.38;;;1.42;;
54464;SDS011;40374;49.480;20.016;2022-12-11T01:12:53;4.30;;;2.20;;
54464;SDS011;40374;49.480;20.016;2022-12-11T01:15:26;5.88;;;2.40;;
54464;SDS011;40374;49.480;20.016;2022-12-11T01:17:55;6.63;;;3.20;;
54464;SDS011;40374;49.480;20.016;2022-12-11T01:20:24;5.78;;;2.45;;
54464;SDS011;40374;49.480;20.016;2022-12-11T01:22:53;8.48;;;3.65;;
54464;SDS011;40374;49.480;20.016;2022-12-11T01:25:22;9.93;;;3.78;;
54464;SDS011;40374;49.480;20.016;2022-12-11T01:27:51;7.50;;;3.83;;
54464;SDS011;40374;49.480;20.016;2022-12-11T01:30:21;7.82;;;3.72;;
54464;SDS011;40374;49.480;20.016;2022-12-11T01:32:49;7.70;;;3.95;;
54464;SDS011;40374;49.480;20.016;2022-12-11T01:35:17;7.22;;;3.50;;
54464;SDS011;40374;49.480;20.016;2022-12-11T01:37:45;7.07;;;3.47;;
54464;SDS011;40374;49.480;20.016;2022-12-11T01:40:13;13.35;;;4.15;;
54464;SDS011;40374;49.480;20.016;2022-12-11T01:42:42;8.85;;;4.03;;
54464;SDS011;40374;49.480;20.016;2022-12-11T01:47:55;8.70;;;3.60;;
54464;SDS011;40374;49.480;20.016;2022-12-11T01:50:28;11.60;;;5.35;;
54464;SDS011;40374;49.480;20.016;2022-12-11T01:52:59;13.13;;;5.22;;
54464;SDS011;40374;49.480;20.016;2022-12-11T01:55:28;11.90;;;5.72;;
54464;SDS011;40374;49.480;20.016;2022-12-11T01:57:55;18.77;;;9.27;;
54464;SDS011;40374;49.480;20.016;2022-12-11T02:00:23;13.85;;;5.05;;
54464;SDS011;40374;49.480;20.016;2022-12-11T02:02:50;17.30;;;6.35;;
54464;SDS011;40374;49.480;20.016;2022-12-11T02:05:18;22.45;;;7.47;;
54464;SDS011;40374;49.480;20.016;2022-12-11T02:07:47;14.52;;;7.15;;
54464;SDS011;40374;49.480;20.016;2022-12-11T02:10:18;19.88;;;7.55;;
54464;SDS011;40374;49.480;20.016;2022-12-11T02:12:56;12.02;;;5.38;;
54464;SDS011;40374;49.480;20.016;2022-12-11T02:28:45;5.22;;;2.47;;
54464;SDS011;40374;49.480;20.016;2022-12-11T02:31:21;6.10;;;3.13;;
54464;SDS011;40374;49.480;20.016;2022-12-11T02:36:42;6.57;;;3.10;;
54464;SDS011;40374;49.480;20.016;2022-12-11T02:39:14;11.07;;;4.47;;
54464;SDS011;40374;49.480;20.016;2022-12-11T02:41:47;14.65;;;5.80;;
54464;SDS011;40374;49.480;20.016;2022-12-11T02:44:18;16.42;;;6.55;;
54464;SDS011;40374;49.480;20.016;2022-12-11T02:46:49;13.15;;;5.63;;
54464;SDS011;40374;49.480;20.016;2022-12-11T02:49:18;15.60;;;5.38;;
54464;SDS011;40374;49.480;20.016;2022-12-11T02:51:48;14.00;;;5.65;;
54464;SDS011;40374;49.480;20.016;2022-12-11T02:54:19;14.38;;;4.90;;
54464;SDS011;40374;49.480;20.016;2022-12-11T02:56:53;14.77;;;5.30;;
54464;SDS011;40374;49.480;20.016;2022-12-11T03:02:07;15.82;;;5.25;;
54464;SDS011;40374;49.480;20.016;2022-12-11T03:04:35;8.70;;;3.72;;
54464;SDS011;40374;49.480;20.016;2022-12-11T03:07:05;10.07;;;4.10;;
54464;SDS011;40374;49.480;20.016;2022-12-11T03:09:41;10.38;;;4.13;;
54464;SDS011;40374;49.480;20.016;2022-12-11T03:12:10;10.13;;;4.10;;
54464;SDS011;40374;49.480;20.016;2022-12-11T03:14:40;7.05;;;3.22;;
54464;SDS011;40374;49.480;20.016;2022-12-11T03:17:18;7.45;;;3.30;;
54464;SDS011;40374;49.480;20.016;2022-12-11T03:19:52;7.28;;;2.75;;
54464;SDS011;40374;49.480;20.016;2022-12-11T03:25:16;6.90;;;3.30;;
54464;SDS011;40374;49.480;20.016;2022-12-11T03:27:53;4.70;;;2.50;;
54464;SDS011;40374;49.480;20.016;2022-12-11T03:30:24;8.60;;;4.25;;
54464;SDS011;40374;49.480;20.016;2022-12-11T03:33:00;11.20;;;3.53;;
54464;SDS011;40374;49.480;20.016;2022-12-11T03:35:32;6.32;;;2.90;;
54464;SDS011;40374;49.480;20.016;2022-12-11T03:38:09;10.80;;;3.10;;
54464;SDS011;40374;49.480;20.016;2022-12-11T03:40:42;6.15;;;3.03;;
54464;SDS011;40374;49.480;20.016;2022-12-11T03:43:12;6.85;;;3.33;;
54464;SDS011;40374;49.480;20.016;2022-12-11T03:45:42;9.05;;;4.13;;
54464;SDS011;40374;49.480;20.016;2022-12-11T03:48:11;9.10;;;3.65;;
54464;SDS011;40374;49.480;20.016;2022-12-11T03:50:40;7.80;;;4.22;;
54464;SDS011;40374;49.480;20.016;2022-12-11T03:53:08;7.05;;;4.05;;
54464;SDS011;40374;49.480;20.016;2022-12-11T03:55:36;13.57;;;6.32;;
54464;SDS011;40374;49.480;20.016;2022-12-11T03:58:05;19.23;;;8.07;;
54464;SDS011;40374;49.480;20.016;2022-12-11T04:00:33;15.43;;;7.35;;
54464;SDS011;40374;49.480;20.016;2022-12-11T04:03:01;12.00;;;6.05;;
54464;SDS011;40374;49.480;20.016;2022-12-11T04:05:44;12.15;;;4.80;;
54464;SDS011;40374;49.480;20.016;2022-12-11T04:08:17;21.02;;;7.68;;
54464;SDS011;40374;49.480;20.016;2022-12-11T04:10:46;8.13;;;3.58;;
54464;SDS011;40374;49.480;20.016;2022-12-11T04:13:14;8.60;;;3.53;;
54464;SDS011;40374;49.480;20.016;2022-12-11T04:15:41;6.03;;;2.97;;
54464;SDS011;40374;49.480;20.016;2022-12-11T04:18:09;8.73;;;3.53;;
54464;SDS011;40374;49.480;20.016;2022-12-11T04:20:55;7.82;;;2.80;;
54464;SDS011;40374;49.480;20.016;2022-12-11T04:23:42;4.95;;;2.92;;
54464;SDS011;40374;49.480;20.016;2022-12-11T04:26:27;6.67;;;3.13;;
54464;SDS011;40374;49.480;20.016;2022-12-11T04:28:55;8.00;;;3.08;;
54464;SDS011;40374;49.480;20.016;2022-12-11T04:31:22;5.95;;;3.53;;
54464;SDS011;40374;49.480;20.016;2022-12-11T04:33:50;5.18;;;3.08;;
54464;SDS011;40374;49.480;20.016;2022-12-11T04:36:17;7.85;;;3.60;;
54464;SDS011;40374;49.480;20.016;2022-12-11T04:38:45;6.80;;;3.28;;
54464;SDS011;40374;49.480;20.016;2022-12-11T04:41:13;10.48;;;4.30;;
54464;SDS011;40374;49.480;20.016;2022-12-11T04:43:42;10.48;;;3.50;;
54464;SDS011;40374;49.480;20.016;2022-12-11T04:46:14;8.63;;;3.75;;
54464;SDS011;40374;49.480;20.016;2022-12-11T04:48:47;11.68;;;5.10;;
54464;SDS011;40374;49.480;20.016;2022-12-11T04:51:22;9.63;;;3.75;;
54464;SDS011;40374;49.480;20.016;2022-12-11T04:53:50;8.38;;;3.60;;
54464;SDS011;40374;49.480;20.016;2022-12-11T04:56:18;5.40;;;3.00;;
54464;SDS011;40374;49.480;20.016;2022-12-11T04:58:46;4.78;;;2.97;;
54464;SDS011;40374;49.480;20.016;2022-12-11T05:01:18;6.57;;;2.92;;
54464;SDS011;40374;49.480;20.016;2022-12-11T05:03:47;12.00;;;3.45;;
54464;SDS011;40374;49.480;20.016;2022-12-11T05:06:15;6.13;;;2.80;;
54464;SDS011;40374;49.480;20.016;2022-12-11T05:08:42;6.68;;;3.13;;
54464;SDS011;40374;49.480;20.016;2022-12-11T05:11:12;7.18;;;3.17;;
54464;SDS011;40374;49.480;20.016;2022-12-11T05:13:41;6.72;;;2.95;;
54464;SDS011;40374;49.480;20.016;2022-12-11T05:16:10;6.80;;;3.00;;
54464;SDS011;40374;49.480;20.016;2022-12-11T05:18:40;4.82;;;2.65;;
54464;SDS011;40374;49.480;20.016;2022-12-11T05:21:11;4.45;;;2.55;;
54464;SDS011;40374;49.480;20.016;2022-12-11T05:23:40;9.98;;;3.08;;
54464;SDS011;40374;49.480;20.016;2022-12-11T05:26:13;9.68;;;3.78;;
54464;SDS011;40374;49.480;20.016;2022-12-11T05:28:44;19.33;;;10.10;;
54464;SDS011;40374;49.480;20.016;2022-12-11T05:31:13;10.68;;;5.38;;
54464;SDS011;40374;49.480;20.016;2022-12-11T05:33:43;7.50;;;3.25;;
54464;SDS011;40374;49.480;20.016;2022-12-11T05:36:19;4.75;;;2.72;;
54464;SDS011;40374;49.480;20.016;2022-12-11T05:38:47;6.68;;;3.25;;
54464;SDS011;40374;49.480;20.016;2022-12-11T05:41:15;6.85;;;3.35;;
54464;SDS011;40374;49.480;20.016;2022-12-11T05:43:45;9.57;;;3.40;;
54464;SDS011;40374;49.480;20.016;2022-12-11T05:46:16;7.00;;;3.15;;
54464;SDS011;40374;49.480;20.016;2022-12-11T05:48:47;7.38;;;3.10;;
54464;SDS011;40374;49.480;20.016;2022-12-11T05:51:16;8.20;;;2.95;;
54464;SDS011;40374;49.480;20.016;2022-12-11T05:53:45;9.25;;;2.95;;
54464;SDS011;40374;49.480;20.016;2022-12-11T05:56:24;5.22;;;2.70;;
54464;SDS011;40374;49.480;20.016;2022-12-11T05:58:54;5.65;;;2.97;;
54464;SDS011;40374;49.480;20.016;2022-12-11T06:01:24;6.18;;;2.72;;
54464;SDS011;40374;49.480;20.016;2022-12-11T06:03:56;5.07;;;2.90;;
54464;SDS011;40374;49.480;20.016;2022-12-11T06:06:24;6.28;;;2.90;;
54464;SDS011;40374;49.480;20.016;2022-12-11T06:08:54;4.75;;;2.40;;
54464;SDS011;40374;49.480;20.016;2022-12-11T06:11:23;3.05;;;2.13;;
54464;SDS011;40374;49.480;20.016;2022-12-11T06:13:52;7.70;;;3.13;;
54464;SDS011;40374;49.480;20.016;2022-12-11T06:16:20;4.18;;;2.17;;
54464;SDS011;40374;49.480;20.016;2022-12-11T06:18:48;7.40;;;2.92;;
54464;SDS011;40374;49.480;20.016;2022-12-11T06:21:18;3.92;;;2.65;;
54464;SDS011;40374;49.480;20.016;2022-12-11T06:23:50;8.70;;;3.92;;
54464;SDS011;40374;49.480;20.016;2022-12-11T06:26:19;6.68;;;3.10;;
54464;SDS011;40374;49.480;20.016;2022-12-11T06:28:48;4.90;;;2.78;;
54464;SDS011;40374;49.480;20.016;2022-12-11T06:31:15;5.40;;;2.47;;
54464;SDS011;40374;49.480;20.016;2022-12-11T06:33:44;11.38;;;2.97;;
54464;SDS011;40374;49.480;20.016;2022-12-11T06:36:12;6.35;;;3.40;;
54464;SDS011;40374;49.480;20.016;2022-12-11T06:38:42;10.27;;;4.55;;
54464;SDS011;40374;49.480;20.016;2022-12-11T06:41:09;11.95;;;4.50;;
54464;SDS011;40374;49.480;20.016;2022-12-11T06:43:38;9.50;;;4.35;;
54464;SDS011;40374;49.480;20.016;2022-12-11T06:46:14;8.13;;;4.00;;
54464;SDS011;40374;49.480;20.016;2022-12-11T06:48:43;7.63;;;3.40;;
54464;SDS011;40374;49.480;20.016;2022-12-11T06:51:12;7.82;;;3.17;;
54464;SDS011;40374;49.480;20.016;2022-12-11T06:53:42;5.82;;;3.08;;
54464;SDS011;40374;49.480;20.016;2022-12-11T06:56:13;5.78;;;3.35;;
54464;SDS011;40374;49.480;20.016;2022-12-11T06:58:42;7.18;;;3.50;;
54464;SDS011;40374;49.480;20.016;2022-12-11T07:01:17;10.02;;;4.15;;
54464;SDS011;40374;49.480;20.016;2022-12-11T07:03:47;8.80;;;3.72;;
54464;SDS011;40374;49.480;20.016;2022-12-11T07:06:15;9.32;;;4.03;;
54464;SDS011;40374;49.480;20.016;2022-12-11T07:08:44;9.68;;;4.65;;
54464;SDS011;40374;49.480;20.016;2022-12-11T07:11:12;9.30;;;4.13;;
54464;SDS011;40374;49.480;20.016;2022-12-11T07:13:41;7.57;;;3.33;;
54464;SDS011;40374;49.480;20.016;2022-12-11T07:16:10;9.60;;;3.80;;
54464;SDS011;40374;49.480;20.016;2022-12-11T07:18:39;9.57;;;3.80;;
54464;SDS011;40374;49.480;20.016;2022-12-11T07:21:09;7.93;;;4.50;;
54464;SDS011;40374;49.480;20.016;2022-12-11T07:23:39;8.68;;;3.92;;
54464;SDS011;40374;49.480;20.016;2022-12-11T07:26:08;10.38;;;3.50;;
54464;SDS011;40374;49.480;20.016;2022-12-11T07:28:39;5.20;;;2.97;;
54464;SDS011;40374;49.480;20.016;2022-12-11T07:31:08;9.75;;;3.83;;
54464;SDS011;40374;49.480;20.016;2022-12-11T07:33:37;10.07;;;3.33;;
54464;SDS011;40374;49.480;20.016;2022-12-11T07:36:05;6.95;;;3.08;;
54464;SDS011;40374;49.480;20.016;2022-12-11T07:38:34;8.50;;;3.60;;
54464;SDS011;40374;49.480;20.016;2022-12-11T07:41:02;6.85;;;2.95;;
54464;SDS011;40374;49.480;20.016;2022-12-11T07:43:32;5.65;;;3.03;;
54464;SDS011;40374;49.480;20.016;2022-12-11T07:46:05;5.75;;;3.03;;
54464;SDS011;40374;49.480;20.016;2022-12-11T07:48:36;6.38;;;3.33;;
54464;SDS011;40374;49.480;20.016;2022-12-11T07:51:08;5.07;;;3.10;;
54464;SDS011;40374;49.480;20.016;2022-12-11T07:53:38;7.03;;;3.40;;
54464;SDS011;40374;49.480;20.016;2022-12-11T07:56:05;7.10;;;3.70;;
54464;SDS011;40374;49.480;20.016;2022-12-11T07:58:34;11.65;;;4.70;;
54464;SDS011;40374;49.480;20.016;2022-12-11T08:01:01;9.57;;;4.07;;
54464;SDS011;40374;49.480;20.016;2022-12-11T08:03:29;7.80;;;3.78;;
54464;SDS011;40374;49.480;20.016;2022-12-11T08:05:56;13.18;;;4.13;;
54464;SDS011;40374;49.480;20.016;2022-12-11T08:08:24;8.70;;;4.43;;
54464;SDS011;40374;49.480;20.016;2022-12-11T08:10:51;8.23;;;3.80;;
54464;SDS011;40374;49.480;20.016;2022-12-11T08:13:19;11.57;;;5.05;;
54464;SDS011;40374;49.480;20.016;2022-12-11T08:15:46;13.10;;;5.65;;
54464;SDS011;40374;49.480;20.016;2022-12-11T08:18:15;10.05;;;5.32;;
54464;SDS011;40374;49.480;20.016;2022-12-11T08:20:42;10.93;;;4.97;;
54464;SDS011;40374;49.480;20.016;2022-12-11T08:23:10;10.95;;;4.90;;
54464;SDS011;40374;49.480;20.016;2022-12-11T08:25:37;10.70;;;5.13;;
54464;SDS011;40374;49.480;20.016;2022-12-11T08:28:05;11.02;;;4.30;;
54464;SDS011;40374;49.480;20.016;2022-12-11T08:30:32;15.30;;;5.20;;
54464;SDS011;40374;49.480;20.016;2022-12-11T08:33:00;10.63;;;4.97;;
54464;SDS011;40374;49.480;20.016;2022-12-11T08:35:27;8.98;;;4.05;;
54464;SDS011;40374;49.480;20.016;2022-12-11T08:37:55;10.32;;;4.05;;
54464;SDS011;40374;49.480;20.016;2022-12-11T08:40:22;11.35;;;5.07;;
54464;SDS011;40374;49.480;20.016;2022-12-11T08:42:50;9.85;;;4.40;;
54464;SDS011;40374;49.480;20.016;2022-12-11T08:45:18;12.55;;;6.32;;
54464;SDS011;40374;49.480;20.016;2022-12-11T08:47:45;8.15;;;4.07;;
54464;SDS011;40374;49.480;20.016;2022-12-11T08:50:13;14.50;;;5.68;;
54464;SDS011;40374;49.480;20.016;2022-12-11T08:52:40;13.07;;;5.18;;
54464;SDS011;40374;49.480;20.016;2022-12-11T08:55:07;11.77;;;4.68;;
54464;SDS011;40374;49.480;20.016;2022-12-11T08:57:36;12.60;;;5.03;;
54464;SDS011;40374;49.480;20.016;2022-12-11T09:00:06;15.82;;;6.53;;
54464;SDS011;40374;49.480;20.016;2022-12-11T09:02:35;13.93;;;6.15;;
54464;SDS011;40374;49.480;20.016;2022-12-11T09:05:02;16.10;;;7.47;;
54464;SDS011;40374;49.480;20.016;2022-12-11T09:07:34;15.38;;;7.22;;
54464;SDS011;40374;49.480;20.016;2022-12-11T09:10:03;19.20;;;7.70;;
54464;SDS011;40374;49.480;20.016;2022-12-11T09:12:32;16.45;;;6.78;;
54464;SDS011;40374;49.480;20.016;2022-12-11T09:15:00;16.30;;;6.85;;
54464;SDS011;40374;49.480;20.016;2022-12-11T09:17:28;14.60;;;6.68;;
54464;SDS011;40374;49.480;20.016;2022-12-11T09:19:55;14.82;;;6.70;;
54464;SDS011;40374;49.480;20.016;2022-12-11T09:22:22;12.45;;;6.20;;
54464;SDS011;40374;49.480;20.016;2022-12-11T09:24:49;15.20;;;6.10;;
54464;SDS011;40374;49.480;20.016;2022-12-11T09:27:17;12.82;;;6.00;;
54464;SDS011;40374;49.480;20.016;2022-12-11T09:29:47;16.55;;;6.50;;
54464;SDS011;40374;49.480;20.016;2022-12-11T09:32:16;14.50;;;7.05;;
54464;SDS011;40374;49.480;20.016;2022-12-11T09:34:43;20.02;;;7.00;;
54464;SDS011;40374;49.480;20.016;2022-12-11T09:37:11;13.88;;;6.32;;
54464;SDS011;40374;49.480;20.016;2022-12-11T09:39:38;9.45;;;5.05;;
54464;SDS011;40374;49.480;20.016;2022-12-11T09:45:15;12.90;;;5.85;;
54464;SDS011;40374;49.480;20.016;2022-12-11T09:47:44;10.57;;;4.47;;
54464;SDS011;40374;49.480;20.016;2022-12-11T09:50:20;16.15;;;6.80;;
54464;SDS011;40374;49.480;20.016;2022-12-11T09:55:49;9.30;;;4.32;;
54464;SDS011;40374;49.480;20.016;2022-12-11T10:06:35;12.13;;;4.93;;
54464;SDS011;40374;49.480;20.016;2022-12-11T10:11:54;14.95;;;6.40;;
54464;SDS011;40374;49.480;20.016;2022-12-11T10:20:02;12.02;;;5.53;;
54464;SDS011;40374;49.480;20.016;2022-12-11T10:22:50;11.45;;;5.35;;
54464;SDS011;40374;49.480;20.016;2022-12-11T10:25:26;14.65;;;6.05;;
54464;SDS011;40374;49.480;20.016;2022-12-11T10:27:58;13.57;;;7.03;;
54464;SDS011;40374;49.480;20.016;2022-12-11T10:30:28;12.82;;;4.97;;
54464;SDS011;40374;49.480;20.016;2022-12-11T10:33:19;16.23;;;5.45;;
54464;SDS011;40374;49.480;20.016;2022-12-11T10:35:55;10.40;;;4.40;;
54464;SDS011;40374;49.480;20.016;2022-12-11T10:41:04;9.93;;;4.97;;
54464;SDS011;40374;49.480;20.016;2022-12-11T10:43:48;9.63;;;5.13;;
54464;SDS011;40374;49.480;20.016;2022-12-11T10:46:23;9.90;;;5.35;;
54464;SDS011;40374;49.480;20.016;2022-12-11T10:48:55;8.88;;;4.90;;
54464;SDS011;40374;49.480;20.016;2022-12-11T10:54:02;12.52;;;6.18;;
54464;SDS011;40374;49.480;20.016;2022-12-11T10:56:50;10.63;;;4.43;;
54464;SDS011;40374;49.480;20.016;2022-12-11T10:59:45;14.32;;;7.20;;
54464;SDS011;40374;49.480;20.016;2022-12-11T11:02:26;13.35;;;6.47;;
54464;SDS011;40374;49.480;20.016;2022-12-11T11:05:14;14.77;;;6.27;;
54464;SDS011;40374;49.480;20.016;2022-12-11T11:08:03;12.60;;;5.93;;
54464;SDS011;40374;49.480;20.016;2022-12-11T11:10:52;11.52;;;5.95;;
54464;SDS011;40374;49.480;20.016;2022-12-11T11:13:24;12.30;;;6.00;;
54464;SDS011;40374;49.480;20.016;2022-12-11T11:16:06;11.43;;;5.80;;
54464;SDS011;40374;49.480;20.016;2022-12-11T11:21:17;12.93;;;6.45;;
54464;SDS011;40374;49.480;20.016;2022-12-11T11:23:47;18.02;;;6.93;;
54464;SDS011;40374;49.480;20.016;2022-12-11T11:26:20;12.10;;;6.70;;
54464;SDS011;40374;49.480;20.016;2022-12-11T11:29:20;13.77;;;6.75;;
54464;SDS011;40374;49.480;20.016;2022-12-11T11:32:03;11.98;;;5.80;;
54464;SDS011;40374;49.480;20.016;2022-12-11T11:34:45;13.57;;;5.75;;
54464;SDS011;40374;49.480;20.016;2022-12-11T11:37:36;12.05;;;4.30;;
54464;SDS011;40374;49.480;20.016;2022-12-11T11:46:01;16.17;;;6.05;;
54464;SDS011;40374;49.480;20.016;2022-12-11T11:51:18;18.05;;;6.97;;
54464;SDS011;40374;49.480;20.016;2022-12-11T11:53:55;10.98;;;4.68;;
54464;SDS011;40374;49.480;20.016;2022-12-11T11:56:40;20.02;;;7.70;;
54464;SDS011;40374;49.480;20.016;2022-12-11T11:59:17;12.90;;;4.22;;
54464;SDS011;40374;49.480;20.016;2022-12-11T12:01:59;12.30;;;6.22;;
54464;SDS011;40374;49.480;20.016;2022-12-11T12:04:30;16.60;;;6.32;;
54464;SDS011;40374;49.480;20.016;2022-12-11T12:07:19;11.60;;;5.35;;
54464;SDS011;40374;49.480;20.016;2022-12-11T12:13:18;13.63;;;5.85;;
54464;SDS011;40374;49.480;20.016;2022-12-11T12:19:54;18.47;;;7.60;;
54464;SDS011;40374;49.480;20.016;2022-12-11T12:23:08;15.32;;;6.35;;
54464;SDS011;40374;49.480;20.016;2022-12-11T12:26:09;17.83;;;7.57;;
54464;SDS011;40374;49.480;20.016;2022-12-11T12:35:13;9.15;;;5.15;;
54464;SDS011;40374;49.480;20.016;2022-12-11T12:46:06;18.10;;;7.53;;
54464;SDS011;40374;49.480;20.016;2022-12-11T12:49:00;19.45;;;7.72;;
54464;SDS011;40374;49.480;20.016;2022-12-11T12:51:29;18.10;;;5.97;;
54464;SDS011;40374;49.480;20.016;2022-12-11T12:54:00;18.30;;;8.88;;
54464;SDS011;40374;49.480;20.016;2022-12-11T12:56:38;12.60;;;6.28;;
54464;SDS011;40374;49.480;20.016;2022-12-11T12:59:24;18.15;;;7.50;;
54464;SDS011;40374;49.480;20.016;2022-12-11T13:01:59;15.75;;;5.97;;
54464;SDS011;40374;49.480;20.016;2022-12-11T13:07:25;20.13;;;7.38;;
54464;SDS011;40374;49.480;20.016;2022-12-11T13:10:00;19.95;;;8.07;;
54464;SDS011;40374;49.480;20.016;2022-12-11T13:12:48;12.30;;;4.60;;
54464;SDS011;40374;49.480;20.016;2022-12-11T13:17:59;12.95;;;4.55;;
54464;SDS011;40374;49.480;20.016;2022-12-11T13:20:31;17.50;;;7.43;;
54464;SDS011;40374;49.480;20.016;2022-12-11T13:25:55;25.75;;;9.35;;
54464;SDS011;40374;49.480;20.016;2022-12-11T13:28:31;28.00;;;10.98;;
54464;SDS011;40374;49.480;20.016;2022-12-11T13:38:52;31.88;;;14.23;;
54464;SDS011;40374;49.480;20.016;2022-12-11T13:41:27;37.83;;;13.30;;
54464;SDS011;40374;49.480;20.016;2022-12-11T13:44:00;39.58;;;13.45;;
54464;SDS011;40374;49.480;20.016;2022-12-11T13:46:31;32.72;;;13.25;;
54464;SDS011;40374;49.480;20.016;2022-12-11T13:49:03;39.80;;;13.18;;
54464;SDS011;40374;49.480;20.016;2022-12-11T13:51:33;38.20;;;13.30;;
54464;SDS011;40374;49.480;20.016;2022-12-11T13:54:16;33.53;;;13.55;;
54464;SDS011;40374;49.480;20.016;2022-12-11T13:56:55;40.28;;;15.23;;
54464;SDS011;40374;49.480;20.016;2022-12-11T13:59:37;48.72;;;19.10;;
54464;SDS011;40374;49.480;20.016;2022-12-11T14:05:06;33.75;;;12.43;;
54464;SDS011;40374;49.480;20.016;2022-12-11T14:07:38;33.07;;;11.93;;
54464;SDS011;40374;49.480;20.016;2022-12-11T14:10:15;30.15;;;10.50;;
54464;SDS011;40374;49.480;20.016;2022-12-11T14:13:10;29.60;;;12.60;;
54464;SDS011;40374;49.480;20.016;2022-12-11T14:15:46;31.10;;;11.82;;
54464;SDS011;40374;49.480;20.016;2022-12-11T14:18:19;30.67;;;11.90;;
54464;SDS011;40374;49.480;20.016;2022-12-11T14:20:57;26.95;;;11.90;;
54464;SDS011;40374;49.480;20.016;2022-12-11T14:23:34;24.00;;;10.27;;
54464;SDS011;40374;49.480;20.016;2022-12-11T14:26:10;21.95;;;9.80;;
54464;SDS011;40374;49.480;20.016;2022-12-11T14:28:44;32.58;;;11.35;;
54464;SDS011;40374;49.480;20.016;2022-12-11T14:31:13;39.72;;;12.48;;
54464;SDS011;40374;49.480;20.016;2022-12-11T14:34:14;39.28;;;13.27;;
54464;SDS011;40374;49.480;20.016;2022-12-11T14:36:47;39.95;;;13.57;;
54464;SDS011;40374;49.480;20.016;2022-12-11T14:39:18;43.50;;;13.27;;
54464;SDS011;40374;49.480;20.016;2022-12-11T14:44:32;35.33;;;12.88;;
54464;SDS011;40374;49.480;20.016;2022-12-11T14:47:10;31.88;;;13.13;;
54464;SDS011;40374;49.480;20.016;2022-12-11T14:49:54;34.92;;;13.57;;
54464;SDS011;40374;49.480;20.016;2022-12-11T14:53:14;30.50;;;11.82;;
54464;SDS011;40374;49.480;20.016;2022-12-11T14:55:28;33.28;;;12.93;;
54464;SDS011;40374;49.480;20.016;2022-12-11T14:58:02;34.92;;;13.52;;
54464;SDS011;40374;49.480;20.016;2022-12-11T15:00:39;33.83;;;13.27;;
54464;SDS011;40374;49.480;20.016;2022-12-11T15:04:00;30.63;;;13.55;;
54464;SDS011;40374;49.480;20.016;2022-12-11T15:06:01;30.88;;;12.27;;
54464;SDS011;40374;49.480;20.016;2022-12-11T15:12:13;50.45;;;19.35;;
54464;SDS011;40374;49.480;20.016;2022-12-11T15:17:18;50.45;;;18.08;;
54464;SDS011;40374;49.480;20.016;2022-12-11T15:19:51;53.17;;;19.10;;
54464;SDS011;40374;49.480;20.016;2022-12-11T15:22:31;51.50;;;20.38;;
54464;SDS011;40374;49.480;20.016;2022-12-11T15:24:59;54.28;;;18.45;;
54464;SDS011;40374;49.480;20.016;2022-12-11T15:27:30;47.17;;;17.85;;
54464;SDS011;40374;49.480;20.016;2022-12-11T15:33:00;44.17;;;18.48;;
54464;SDS011;40374;49.480;20.016;2022-12-11T15:35:57;51.47;;;17.20;;
54464;SDS011;40374;49.480;20.016;2022-12-11T15:38:38;69.35;;;23.83;;
54464;SDS011;40374;49.480;20.016;2022-12-11T15:41:27;56.88;;;23.45;;
54464;SDS011;40374;49.480;20.016;2022-12-11T15:44:07;49.88;;;19.67;;
54464;SDS011;40374;49.480;20.016;2022-12-11T15:46:45;38.75;;;14.10;;
54464;SDS011;40374;49.480;20.016;2022-12-11T15:49:13;31.70;;;15.05;;
54464;SDS011;40374;49.480;20.016;2022-12-11T15:51:45;33.83;;;13.73;;
54464;SDS011;40374;49.480;20.016;2022-12-11T15:54:13;32.83;;;12.40;;
54464;SDS011;40374;49.480;20.016;2022-12-11T15:56:43;31.48;;;12.95;;
54464;SDS011;40374;49.480;20.016;2022-12-11T15:59:11;30.50;;;12.93;;
54464;SDS011;40374;49.480;20.016;2022-12-11T16:01:43;31.85;;;12.68;;
54464;SDS011;40374;49.480;20.016;2022-12-11T16:04:13;39.33;;;13.82;;
54464;SDS011;40374;49.480;20.016;2022-12-11T16:06:43;43.70;;;15.77;;
54464;SDS011;40374;49.480;20.016;2022-12-11T16:09:13;48.22;;;17.38;;
54464;SDS011;40374;49.480;20.016;2022-12-11T16:11:47;48.53;;;16.60;;
54464;SDS011;40374;49.480;20.016;2022-12-11T16:14:16;49.65;;;17.88;;
54464;SDS011;40374;49.480;20.016;2022-12-11T16:16:45;41.25;;;15.45;;
54464;SDS011;40374;49.480;20.016;2022-12-11T16:19:13;38.70;;;14.60;;
54464;SDS011;40374;49.480;20.016;2022-12-11T16:21:42;39.65;;;14.38;;
54464;SDS011;40374;49.480;20.016;2022-12-11T16:24:17;34.10;;;13.90;;
54464;SDS011;40374;49.480;20.016;2022-12-11T16:26:47;36.67;;;14.18;;
54464;SDS011;40374;49.480;20.016;2022-12-11T16:29:17;40.70;;;17.13;;
54464;SDS011;40374;49.480;20.016;2022-12-11T16:31:44;39.95;;;14.90;;
54464;SDS011;40374;49.480;20.016;2022-12-11T16:34:12;41.92;;;15.13;;
54464;SDS011;40374;49.480;20.016;2022-12-11T16:36:43;40.50;;;15.52;;
54464;SDS011;40374;49.480;20.016;2022-12-11T16:39:11;40.80;;;13.73;;
54464;SDS011;40374;49.480;20.016;2022-12-11T16:41:39;35.97;;;13.90;;
54464;SDS011;40374;49.480;20.016;2022-12-11T16:44:06;41.92;;;17.02;;
54464;SDS011;40374;49.480;20.016;2022-12-11T16:46:34;42.95;;;15.05;;
54464;SDS011;40374;49.480;20.016;2022-12-11T16:49:02;43.80;;;15.10;;